createdAt,value
2023-01-09T00:01:17.083Z,5.98
2023-01-09T00:03:40.688Z,6.16
2023-01-09T00:06:04.298Z,6.23
2023-01-09T00:08:29.320Z,5.96
2023-01-09T00:10:52.835Z,5.97
2023-01-09T00:15:41.995Z,6.16
2023-01-09T00:18:05.746Z,6.07
2023-01-09T00:20:29.287Z,5.92
2023-01-09T00:22:52.883Z,5.97
2023-01-09T00:25:18.017Z,5.89
2023-01-09T00:27:41.755Z,5.84
2023-01-09T00:30:07.195Z,5.89
2023-01-09T00:32:31.184Z,5.55
2023-01-09T00:34:55.885Z,5.60
2023-01-09T00:37:19.461Z,5.44
2023-01-09T00:39:44.120Z,5.62
2023-01-09T00:42:15.029Z,5.62
2023-01-09T00:44:44.766Z,5.54
2023-01-09T00:47:13.660Z,5.42
2023-01-09T00:49:38.482Z,5.54
2023-01-09T00:52:02.427Z,5.61
2023-01-09T00:54:26.998Z,5.37
2023-01-09T00:56:51.357Z,5.51
2023-01-09T00:59:16.392Z,5.21
2023-01-09T01:01:40.127Z,5.20
2023-01-09T01:04:24.501Z,5.29
2023-01-09T01:07:05.341Z,5.19
2023-01-09T01:09:28.921Z,5.30
2023-01-09T01:11:52.462Z,5.24
2023-01-09T01:14:17.436Z,5.22
2023-01-09T01:16:41.288Z,5.26
2023-01-09T01:19:04.998Z,5.10
2023-01-09T01:21:28.509Z,5.14
2023-01-09T01:23:52.064Z,5.06
2023-01-09T01:26:17.865Z,5.27
2023-01-09T01:28:42.050Z,5.08
2023-01-09T01:31:07.736Z,5.10
2023-01-09T01:33:31.732Z,4.97
2023-01-09T01:36:02.821Z,4.96
2023-01-09T01:38:26.412Z,5.08
2023-01-09T01:40:54.735Z,5.16
2023-01-09T01:43:18.330Z,5.18
2023-01-09T01:45:42.071Z,5.15
2023-01-09T01:48:10.904Z,5.22
2023-01-09T01:50:44.515Z,5.17
2023-01-09T01:53:15.118Z,5.19
2023-01-09T01:55:43.278Z,5.05
2023-01-09T01:58:10.986Z,5.05
2023-01-09T02:00:39.537Z,4.75
2023-01-09T02:03:04.728Z,4.89
2023-01-09T02:05:30.281Z,4.88
2023-01-09T02:07:53.959Z,4.94
2023-01-09T02:10:17.860Z,4.99
2023-01-09T02:12:41.640Z,4.75
2023-01-09T02:15:10.095Z,4.78
2023-01-09T02:18:23.830Z,4.54
2023-01-09T02:20:58.941Z,4.64
2023-01-09T02:24:09.500Z,4.52
2023-01-09T02:27:18.477Z,4.45
2023-01-09T02:30:05.416Z,4.32
2023-01-09T02:32:39.366Z,4.37
2023-01-09T02:35:14.949Z,4.38
2023-01-09T02:37:46.543Z,4.39
2023-01-09T02:40:22.080Z,4.39
2023-01-09T02:42:47.072Z,4.30
2023-01-09T02:45:12.150Z,4.36
2023-01-09T02:47:42.765Z,4.27
2023-01-09T02:50:12.976Z,4.22
2023-01-09T02:53:03.086Z,4.34
2023-01-09T02:55:47.838Z,4.04
2023-01-09T02:58:38.205Z,4.19
2023-01-09T03:01:23.816Z,4.13
2023-01-09T03:03:52.982Z,4.32
2023-01-09T03:06:23.340Z,4.19
2023-01-09T03:08:51.526Z,4.25
2023-01-09T03:11:15.165Z,4.35
2023-01-09T03:13:46.351Z,4.39
2023-01-09T03:16:15.939Z,4.11
2023-01-09T03:18:41.394Z,4.25
2023-01-09T03:21:07.990Z,4.25
2023-01-09T03:23:49.586Z,4.39
2023-01-09T03:26:13.370Z,4.33
2023-01-09T03:28:36.867Z,4.34
2023-01-09T03:31:00.496Z,4.36
2023-01-09T03:33:25.448Z,4.38
2023-01-09T03:35:49.029Z,4.39
2023-01-09T03:38:12.666Z,4.48
2023-01-09T03:40:36.237Z,4.55
2023-01-09T03:42:59.745Z,4.66
2023-01-09T03:45:23.372Z,4.60
2023-01-09T03:47:46.968Z,4.48
2023-01-09T03:50:12.873Z,4.74
2023-01-09T03:52:36.822Z,4.74
2023-01-09T03:55:00.388Z,4.77
2023-01-09T03:57:24.220Z,4.75
2023-01-09T03:59:47.847Z,4.88
2023-01-09T04:02:11.570Z,5.01
2023-01-09T04:04:35.222Z,5.01
2023-01-09T04:07:00.131Z,4.86
2023-01-09T04:09:23.769Z,4.86
2023-01-09T04:11:47.399Z,4.85
2023-01-09T04:14:11.004Z,4.98
2023-01-09T04:16:34.650Z,4.80
2023-01-09T04:18:58.227Z,5.19
2023-01-09T04:21:21.765Z,5.19
2023-01-09T04:23:46.735Z,5.13
2023-01-09T04:26:10.292Z,5.12
2023-01-09T04:28:33.909Z,5.07
2023-01-09T04:30:57.409Z,5.12
2023-01-09T04:33:21.044Z,5.36
2023-01-09T04:35:44.577Z,5.21
2023-01-09T04:38:08.135Z,5.23
2023-01-09T04:40:33.058Z,5.42
2023-01-09T04:42:56.661Z,5.48
2023-01-09T04:45:20.202Z,5.58
2023-01-09T04:47:44.529Z,5.59
2023-01-09T04:50:08.982Z,5.52
2023-01-09T04:52:32.592Z,5.44
2023-01-09T04:54:56.186Z,5.62
2023-01-09T04:57:21.211Z,5.55
2023-01-09T04:59:44.777Z,5.42
2023-01-09T05:02:08.817Z,5.62
2023-01-09T05:04:32.717Z,5.63
2023-01-09T05:06:56.368Z,5.68
2023-01-09T05:09:20.208Z,5.65
2023-01-09T05:11:43.838Z,5.76
2023-01-09T05:14:08.765Z,5.76
2023-01-09T05:16:32.459Z,5.68
2023-01-09T05:18:57.209Z,5.77
2023-01-09T05:21:20.807Z,5.66
2023-01-09T05:23:44.321Z,5.64
2023-01-09T05:26:08.133Z,5.55
2023-01-09T05:28:31.788Z,5.71
2023-01-09T05:30:56.738Z,5.64
2023-01-09T05:33:20.259Z,5.69
2023-01-09T05:35:43.846Z,5.89
2023-01-09T05:38:07.385Z,5.77
2023-01-09T05:40:38.565Z,5.99
2023-01-09T05:43:03.535Z,5.83
2023-01-09T05:45:27.829Z,5.71
2023-01-09T05:47:52.808Z,5.85
2023-01-09T05:50:16.775Z,5.77
2023-01-09T05:52:40.405Z,5.58
2023-01-09T05:55:04.357Z,5.62
2023-01-09T05:57:28.881Z,5.81
2023-01-09T05:59:52.392Z,5.73
2023-01-09T06:02:16.244Z,5.89
2023-01-09T06:04:43.786Z,5.86
2023-01-09T06:07:07.362Z,5.84
2023-01-09T06:09:31.898Z,5.64
2023-01-09T06:11:55.890Z,5.95
2023-01-09T06:14:19.631Z,5.89
2023-01-09T06:16:43.315Z,6.01
2023-01-09T06:19:07.203Z,5.90
2023-01-09T06:21:32.239Z,5.80
2023-01-09T06:23:55.768Z,6.02
2023-01-09T06:26:19.336Z,5.86
2023-01-09T06:28:44.638Z,5.82
2023-01-09T06:31:08.554Z,5.74
2023-01-09T06:33:32.319Z,5.85
2023-01-09T06:35:55.943Z,6.06
2023-01-09T06:38:21.095Z,5.96
2023-01-09T06:40:44.803Z,6.16
2023-01-09T06:43:08.352Z,5.79
2023-01-09T06:45:31.953Z,5.70
2023-01-09T06:47:55.450Z,5.99
2023-01-09T06:50:19.531Z,5.92
2023-01-09T06:52:43.075Z,5.74
2023-01-09T06:55:10.133Z,5.93
2023-01-09T06:57:33.724Z,5.98
2023-01-09T06:59:57.291Z,5.68
2023-01-09T07:02:23.083Z,5.84
2023-01-09T07:04:46.693Z,5.68
2023-01-09T07:07:10.244Z,5.77
2023-01-09T07:09:33.870Z,5.89
2023-01-09T07:11:58.754Z,5.92
2023-01-09T07:14:22.316Z,6.14
2023-01-09T07:16:45.823Z,6.05
2023-01-09T07:19:09.446Z,5.68
2023-01-09T07:21:33.093Z,5.94
2023-01-09T07:23:56.722Z,5.98
2023-01-09T07:26:20.246Z,5.92
2023-01-09T07:28:45.188Z,6.03
2023-01-09T07:31:08.778Z,6.02
2023-01-09T07:33:32.613Z,6.12
2023-01-09T07:35:56.154Z,6.11
2023-01-09T07:38:19.750Z,6.16
2023-01-09T07:40:43.287Z,5.86
2023-01-09T07:43:06.911Z,5.85
2023-01-09T07:45:31.811Z,6.05
2023-01-09T07:47:55.439Z,6.10
2023-01-09T07:50:19.184Z,6.13
2023-01-09T07:52:42.725Z,6.02
2023-01-09T07:55:07.615Z,5.92
2023-01-09T07:57:31.178Z,6.08
2023-01-09T07:59:54.679Z,6.15
2023-01-09T08:02:19.715Z,6.33
2023-01-09T08:04:43.302Z,6.17
2023-01-09T08:07:06.852Z,6.10
2023-01-09T08:09:30.365Z,6.32
2023-01-09T08:11:54.901Z,6.36
2023-01-09T08:14:19.753Z,6.41
2023-01-09T08:16:43.424Z,6.12
2023-01-09T08:19:08.458Z,6.13
2023-01-09T08:21:32.044Z,6.31
2023-01-09T08:23:55.575Z,6.49
2023-01-09T08:26:19.693Z,6.24
2023-01-09T08:28:43.211Z,6.35
2023-01-09T08:31:07.058Z,6.34
2023-01-09T08:33:30.637Z,6.48
2023-01-09T08:35:55.637Z,6.54
2023-01-09T08:38:19.408Z,6.34
2023-01-09T08:40:43.068Z,6.51
2023-01-09T08:43:24.372Z,6.70
2023-01-09T08:46:05.895Z,6.63
2023-01-09T08:48:29.588Z,6.44
2023-01-09T08:50:54.526Z,6.73
2023-01-09T08:53:18.173Z,6.32
2023-01-09T08:55:41.693Z,6.38
2023-01-09T08:58:05.301Z,6.24
2023-01-09T09:00:29.375Z,5.96
2023-01-09T09:02:53.921Z,6.29
2023-01-09T09:05:17.652Z,6.36
2023-01-09T09:07:42.973Z,6.48
2023-01-09T09:10:07.321Z,6.52
2023-01-09T09:12:30.928Z,6.53
2023-01-09T09:15:11.932Z,6.41
2023-01-09T09:17:35.548Z,6.57
2023-01-09T09:19:59.088Z,6.62
2023-01-09T09:22:22.667Z,6.77
2023-01-09T09:24:47.567Z,6.79
2023-01-09T09:27:11.133Z,6.61
2023-01-09T09:29:34.791Z,6.45
2023-01-09T09:32:00.695Z,6.54
2023-01-09T09:34:24.513Z,6.81
2023-01-09T09:36:48.113Z,6.70
2023-01-09T09:39:11.642Z,6.82
2023-01-09T09:42:25.995Z,6.73
2023-01-09T09:45:07.980Z,6.89
2023-01-09T09:47:45.879Z,6.86
2023-01-09T09:51:03.747Z,6.75
2023-01-09T09:53:32.230Z,6.47
2023-01-09T09:55:57.784Z,6.75
2023-01-09T09:58:38.213Z,6.95
2023-01-09T10:01:03.007Z,6.71
2023-01-09T10:03:34.263Z,6.96
2023-01-09T10:06:00.279Z,6.92
2023-01-09T10:08:37.894Z,6.94
2023-01-09T10:11:02.542Z,6.89
2023-01-09T10:13:45.355Z,6.98
2023-01-09T10:16:29.678Z,6.94
2023-01-09T10:19:08.190Z,7.12
2023-01-09T10:21:40.278Z,7.02
2023-01-09T10:24:22.078Z,7.08
2023-01-09T10:26:49.757Z,7.17
2023-01-09T10:29:54.422Z,7.37
2023-01-09T10:32:37.074Z,7.57
2023-01-09T10:35:36.312Z,7.76
2023-01-09T10:38:09.109Z,7.53
2023-01-09T10:40:36.968Z,7.68
2023-01-09T10:43:05.518Z,7.83
2023-01-09T10:45:36.227Z,7.87
2023-01-09T10:48:07.564Z,7.49
2023-01-09T10:50:36.257Z,7.75
2023-01-09T10:53:00.007Z,7.76
2023-01-09T10:55:35.943Z,7.86
2023-01-09T10:58:04.407Z,7.72
2023-01-09T11:00:29.526Z,7.73
2023-01-09T11:02:54.697Z,7.78
2023-01-09T11:05:23.323Z,7.86
2023-01-09T11:07:51.374Z,7.78
2023-01-09T11:10:17.422Z,7.84
2023-01-09T11:12:42.813Z,7.96
2023-01-09T11:15:30.462Z,7.90
2023-01-09T11:17:54.100Z,7.69
2023-01-09T11:20:20.439Z,7.88
2023-01-09T11:22:47.471Z,8.01
2023-01-09T11:25:15.553Z,7.91
2023-01-09T11:27:39.113Z,7.52
2023-01-09T11:30:24.014Z,7.61
2023-01-09T11:32:49.996Z,7.99
2023-01-09T11:35:26.625Z,8.09
2023-01-09T11:38:00.808Z,7.98
2023-01-09T11:40:24.538Z,8.01
2023-01-09T11:43:07.293Z,7.89
2023-01-09T11:45:35.121Z,7.96
2023-01-09T11:48:01.442Z,8.00
2023-01-09T11:50:27.793Z,7.96
2023-01-09T11:53:15.109Z,8.03
2023-01-09T11:55:42.734Z,7.98
2023-01-09T11:58:06.956Z,7.99
2023-01-09T12:00:37.006Z,8.05
2023-01-09T12:03:12.583Z,8.12
2023-01-09T12:05:47.223Z,7.97
2023-01-09T12:08:37.249Z,8.15
2023-01-09T12:11:28.670Z,8.07
2023-01-09T12:14:26.983Z,8.06
2023-01-09T12:17:08.306Z,8.07
2023-01-09T12:19:53.958Z,8.01
2023-01-09T12:22:29.158Z,7.83
2023-01-09T12:25:18.943Z,8.11
2023-01-09T12:28:04.876Z,8.25
2023-01-09T12:30:49.218Z,8.19
2023-01-09T12:33:29.616Z,8.27
2023-01-09T12:36:16.126Z,8.39
2023-01-09T12:38:49.147Z,8.39
2023-01-09T12:41:30.220Z,8.22
2023-01-09T12:44:34.707Z,8.27
2023-01-09T12:47:15.870Z,8.11
2023-01-09T12:49:44.385Z,8.24
2023-01-09T12:52:13.737Z,7.99
2023-01-09T12:54:45.140Z,8.06
2023-01-09T12:57:17.013Z,7.99
2023-01-09T12:59:45.169Z,7.58
2023-01-09T13:02:23.065Z,7.75
2023-01-09T13:04:54.497Z,7.97
2023-01-09T13:07:26.122Z,8.00
2023-01-09T13:09:57.377Z,7.97
2023-01-09T13:12:23.340Z,7.88
2023-01-09T13:14:55.171Z,8.12
2023-01-09T13:17:26.489Z,8.06
2023-01-09T13:19:50.511Z,7.95
2023-01-09T13:22:16.151Z,8.34
2023-01-09T13:25:03.390Z,8.39
2023-01-09T13:27:33.253Z,8.24
2023-01-09T13:30:08.065Z,8.41
2023-01-09T13:32:45.098Z,8.26
2023-01-09T13:35:15.691Z,8.36
2023-01-09T13:37:39.260Z,8.14
2023-01-09T13:40:07.935Z,8.29
2023-01-09T13:42:39.186Z,8.31
2023-01-09T13:45:24.595Z,8.11
2023-01-09T13:48:33.858Z,8.18
2023-01-09T13:51:57.781Z,8.22
2023-01-09T13:55:18.541Z,8.31
2023-01-09T13:57:46.905Z,8.36
2023-01-09T14:00:57.382Z,7.71
2023-01-09T14:03:26.393Z,8.32
2023-01-09T14:06:13.516Z,8.32
2023-01-09T14:08:37.670Z,8.39
2023-01-09T14:11:04.121Z,8.32
2023-01-09T14:13:32.842Z,8.29
2023-01-09T14:16:07.714Z,8.15
2023-01-09T14:18:35.372Z,8.36
2023-01-09T14:21:02.308Z,8.27
2023-01-09T14:23:45.988Z,8.12
2023-01-09T14:26:19.224Z,8.22
2023-01-09T14:28:44.327Z,8.14
2023-01-09T14:31:28.663Z,8.04
2023-01-09T14:33:52.575Z,8.30
2023-01-09T14:36:21.996Z,8.19
2023-01-09T14:38:48.408Z,8.22
2023-01-09T14:41:43.463Z,7.99
2023-01-09T14:44:14.980Z,8.28
2023-01-09T14:46:42.419Z,8.26
2023-01-09T14:49:15.798Z,8.18
2023-01-09T14:51:44.216Z,8.36
2023-01-09T14:54:24.322Z,8.04
2023-01-09T14:56:48.481Z,8.16
2023-01-09T14:59:16.874Z,8.22
2023-01-09T15:01:44.485Z,7.97
2023-01-09T15:04:24.676Z,8.15
2023-01-09T15:06:48.359Z,8.27
2023-01-09T15:09:25.624Z,8.38
2023-01-09T15:11:49.619Z,8.39
2023-01-09T15:14:30.095Z,8.41
2023-01-09T15:16:55.075Z,8.38
2023-01-09T15:19:20.834Z,8.18
2023-01-09T15:21:59.148Z,8.21
2023-01-09T15:24:27.138Z,8.27
2023-01-09T15:26:54.762Z,8.25
2023-01-09T15:29:20.522Z,8.15
2023-01-09T15:31:45.924Z,8.12
2023-01-09T15:34:16.849Z,8.21
2023-01-09T15:36:40.469Z,8.30
2023-01-09T15:39:08.100Z,8.30
2023-01-09T15:41:50.411Z,8.27
2023-01-09T15:44:20.578Z,8.09
2023-01-09T15:46:46.493Z,8.19
2023-01-09T15:49:12.871Z,8.19
2023-01-09T15:51:37.008Z,8.13
2023-01-09T15:54:01.195Z,8.14
2023-01-09T15:56:26.748Z,8.03
2023-01-09T15:58:51.040Z,8.02
2023-01-09T16:01:30.434Z,7.96
2023-01-09T16:03:56.023Z,7.99
2023-01-09T16:06:26.557Z,7.93
2023-01-09T16:08:55.908Z,7.93
2023-01-09T16:11:26.239Z,7.95
2023-01-09T16:13:49.877Z,7.93
2023-01-09T16:16:15.244Z,7.78
2023-01-09T16:18:51.751Z,7.78
2023-01-09T16:21:37.541Z,7.67
2023-01-09T16:24:04.773Z,7.65
2023-01-09T16:26:31.271Z,7.53
2023-01-09T16:28:56.185Z,7.50
2023-01-09T16:31:26.859Z,7.42
2023-01-09T16:33:59.078Z,7.36
2023-01-09T16:36:23.016Z,7.27
2023-01-09T16:38:47.389Z,7.34
2023-01-09T16:41:34.434Z,7.27
2023-01-09T16:43:58.290Z,7.24
2023-01-09T16:46:23.240Z,7.12
2023-01-09T16:48:47.080Z,7.00
2023-01-09T16:51:17.528Z,6.92
2023-01-09T16:53:41.137Z,6.88
2023-01-09T16:56:05.048Z,6.94
2023-01-09T16:58:31.699Z,6.47
2023-01-09T17:00:55.346Z,6.53
2023-01-09T17:03:20.268Z,6.57
2023-01-09T17:05:44.567Z,6.56
2023-01-09T17:08:21.267Z,6.47
2023-01-09T17:10:44.859Z,6.39
2023-01-09T17:13:08.559Z,6.43
2023-01-09T17:15:32.575Z,6.43
2023-01-09T17:17:58.255Z,6.29
2023-01-09T17:20:22.997Z,6.32
2023-01-09T17:22:46.798Z,6.23
2023-01-09T17:25:33.568Z,6.12
2023-01-09T17:28:14.464Z,6.13
2023-01-09T17:30:38.055Z,6.11
2023-01-09T17:33:01.671Z,6.06
2023-01-09T17:35:25.233Z,6.02
2023-01-09T17:37:48.737Z,5.90
2023-01-09T17:40:20.295Z,6.00
2023-01-09T17:42:43.861Z,5.98
2023-01-09T17:45:09.252Z,6.00
2023-01-09T17:47:33.939Z,5.95
2023-01-09T17:49:57.449Z,5.97
2023-01-09T17:52:21.994Z,6.03
2023-01-09T17:54:45.644Z,6.07
2023-01-09T17:57:16.209Z,6.03
2023-01-09T17:59:39.850Z,5.87
2023-01-09T18:02:03.431Z,5.95
2023-01-09T18:04:27.035Z,5.90
2023-01-09T18:06:50.627Z,5.94
2023-01-09T18:09:17.736Z,6.00
2023-01-09T18:11:42.087Z,5.87
2023-01-09T18:14:07.050Z,5.97
2023-01-09T18:16:30.933Z,5.89
2023-01-09T18:18:58.294Z,6.09
2023-01-09T18:21:24.815Z,6.08
2023-01-09T18:23:50.049Z,6.07
2023-01-09T18:26:20.693Z,6.21
2023-01-09T18:28:44.331Z,6.04
2023-01-09T18:31:09.356Z,6.24
2023-01-09T18:33:33.485Z,6.36
2023-01-09T18:35:57.111Z,6.38
2023-01-09T18:38:20.675Z,6.45
2023-01-09T18:40:44.287Z,6.27
2023-01-09T18:43:09.095Z,6.37
2023-01-09T18:45:34.014Z,6.34
2023-01-09T18:47:59.141Z,6.29
2023-01-09T18:50:22.671Z,6.44
2023-01-09T18:52:46.288Z,6.52
2023-01-09T18:55:11.063Z,6.58
2023-01-09T18:57:34.690Z,6.39
2023-01-09T18:59:58.192Z,6.43
2023-01-09T19:02:24.205Z,6.59
2023-01-09T19:04:49.251Z,6.48
2023-01-09T19:07:13.076Z,6.61
2023-01-09T19:09:36.626Z,6.62
2023-01-09T19:12:00.210Z,6.48
2023-01-09T19:14:23.722Z,6.58
2023-01-09T19:16:47.389Z,6.52
2023-01-09T19:19:11.115Z,6.60
2023-01-09T19:21:36.117Z,6.48
2023-01-09T19:23:59.928Z,6.80
2023-01-09T19:26:26.046Z,6.52
2023-01-09T19:28:50.291Z,6.77
2023-01-09T19:31:14.338Z,6.65
2023-01-09T19:33:38.799Z,6.82
2023-01-09T19:36:02.360Z,6.78
2023-01-09T19:38:27.846Z,6.75
2023-01-09T19:40:51.687Z,6.62
2023-01-09T19:43:25.906Z,6.69
2023-01-09T19:45:49.725Z,6.84
2023-01-09T19:48:13.272Z,6.89
2023-01-09T19:50:38.113Z,6.92
2023-01-09T19:53:01.650Z,6.88
2023-01-09T19:55:26.692Z,6.71
2023-01-09T19:57:50.208Z,6.98
2023-01-09T20:00:15.346Z,6.80
2023-01-09T20:02:39.088Z,7.07
2023-01-09T20:05:02.786Z,6.60
2023-01-09T20:07:26.343Z,6.70
2023-01-09T20:09:50.315Z,6.82
2023-01-09T20:12:15.205Z,6.82
2023-01-09T20:14:38.771Z,6.78
2023-01-09T20:17:04.290Z,6.86
2023-01-09T20:19:30.295Z,6.95
2023-01-09T20:21:53.871Z,6.94
2023-01-09T20:24:18.092Z,7.00
2023-01-09T20:26:41.783Z,6.94
2023-01-09T20:29:08.609Z,7.10
2023-01-09T20:31:33.061Z,7.12
2023-01-09T20:33:58.968Z,7.07
2023-01-09T20:36:27.502Z,7.17
2023-01-09T20:38:51.122Z,7.00
2023-01-09T20:41:22.852Z,7.03
2023-01-09T20:43:46.519Z,6.91
2023-01-09T20:46:11.500Z,6.98
2023-01-09T20:48:35.297Z,6.84
2023-01-09T20:51:04.942Z,6.78
2023-01-09T20:53:28.579Z,6.76
2023-01-09T20:55:52.158Z,6.79
2023-01-09T20:58:15.748Z,6.86
2023-01-09T21:00:39.431Z,6.75
2023-01-09T21:03:05.618Z,6.87
2023-01-09T21:05:29.216Z,6.96
2023-01-09T21:07:53.052Z,6.77
2023-01-09T21:10:16.961Z,6.92
2023-01-09T21:12:40.606Z,6.94
2023-01-09T21:15:07.972Z,7.00
2023-01-09T21:17:34.959Z,6.94
2023-01-09T21:19:59.900Z,6.87
2023-01-09T21:22:23.486Z,6.90
2023-01-09T21:24:50.615Z,7.04
2023-01-09T21:27:14.206Z,7.03
2023-01-09T21:29:37.761Z,7.09
2023-01-09T21:32:01.440Z,6.97
2023-01-09T21:34:25.109Z,6.90
2023-01-09T21:36:50.850Z,6.90
2023-01-09T21:39:14.390Z,6.95
2023-01-09T21:41:55.502Z,6.94
2023-01-09T21:44:36.541Z,6.80
2023-01-09T21:47:01.023Z,7.17
2023-01-09T21:49:26.579Z,7.03
2023-01-09T21:51:51.577Z,7.19
2023-01-09T21:54:15.225Z,7.11
2023-01-09T21:56:39.089Z,7.02
2023-01-09T21:59:02.807Z,7.19
2023-01-09T22:01:26.438Z,6.91
2023-01-09T22:03:50.011Z,7.23
2023-01-09T22:06:13.645Z,7.32
2023-01-09T22:08:38.885Z,7.12
2023-01-09T22:11:02.631Z,7.12
2023-01-09T22:13:26.182Z,7.06
2023-01-09T22:15:49.859Z,6.88
2023-01-09T22:18:13.367Z,7.19
2023-01-09T22:20:37.482Z,6.96
2023-01-09T22:23:01.185Z,7.23
2023-01-09T22:25:26.182Z,7.22
2023-01-09T22:27:49.701Z,7.00
2023-01-09T22:30:14.410Z,7.18
2023-01-09T22:32:37.931Z,7.23
2023-01-09T22:35:01.597Z,7.01
2023-01-09T22:37:25.399Z,6.97
2023-01-09T22:39:49.535Z,7.22
2023-01-09T22:42:16.675Z,7.11
2023-01-09T22:44:40.383Z,7.11
2023-01-09T22:47:03.927Z,7.17
2023-01-09T22:49:30.300Z,7.29
2023-01-09T22:51:57.003Z,7.38
2023-01-09T22:54:20.982Z,7.22
2023-01-09T22:56:44.525Z,7.09
2023-01-09T22:59:09.723Z,7.14
2023-01-09T23:01:33.330Z,6.79
2023-01-09T23:03:56.922Z,6.73
2023-01-09T23:06:22.578Z,6.87
2023-01-09T23:08:47.184Z,6.95
2023-01-09T23:11:17.691Z,7.05
2023-01-09T23:13:41.335Z,6.71
2023-01-09T23:16:07.254Z,6.84
2023-01-09T23:18:30.802Z,7.04
2023-01-09T23:20:56.440Z,7.08
2023-01-09T23:23:21.002Z,7.09
2023-01-09T23:25:49.951Z,7.08
2023-01-09T23:28:13.476Z,6.81
2023-01-09T23:30:37.114Z,6.99
2023-01-09T23:33:02.057Z,7.13
2023-01-09T23:35:25.659Z,6.79
2023-01-09T23:37:49.213Z,7.00
2023-01-09T23:40:13.570Z,7.02
2023-01-09T23:42:54.376Z,6.98
2023-01-09T23:45:18.205Z,6.82
2023-01-09T23:47:41.762Z,7.03
2023-01-09T23:50:09.063Z,7.05
2023-01-09T23:52:32.560Z,7.03
2023-01-09T23:54:56.755Z,6.72
2023-01-09T23:57:21.037Z,6.61
2023-01-09T23:59:44.616Z,6.52
